
Distance (Route):
Temperature : 2.2°C
Humidity : 76.3%
Pressure : 0hPa| Receiver | Frames | First received | Last received |
|---|---|---|---|
| LZ4TU-5 | 98 | 2026-09-01 23:08:53 | 2026-09-02 00:25:31 |
| Receiver | Date | Latitude | Longitude | Direction | Speed | Altitude | Climb | Temperature | Humidity | Pressure | Voltage | Killtimer | Uptime | BKT | XDATA |
|---|---|---|---|---|---|---|---|---|---|---|---|---|---|---|---|
| LZ4TU-5 | 2026-09-02 00:25:31 | -12.04718 | -77.05336 | 298° | 206km/h | 785m | 4.4m/s | 2.2°C | 76.3% | 0hPa | 0V | 00:00:00 | 00:00:00 | 00:00:00 | |
| LZ4TU-5 | 2026-09-02 00:25:27 | -12.04718 | -77.05336 | 298° | 206km/h | 785m | 4.4m/s | 1.9°C | 75.5% | 0hPa | 0V | 00:00:00 | 00:00:00 | 00:00:00 | |
| LZ4TU-5 | 2026-09-02 00:23:52 | -12.04718 | -77.05336 | 298° | 206km/h | 785m | 4.4m/s | -2.3°C | 6.7% | 0hPa | 0V | 00:00:00 | 00:00:00 | 00:00:00 | |
| LZ4TU-5 | 2026-09-02 00:23:48 | -12.04718 | -77.05336 | 298° | 206km/h | 785m | 4.4m/s | -2.1°C | 4.7% | 0hPa | 0V | 00:00:00 | 00:00:00 | 00:00:00 | |
| LZ4TU-5 | 2026-09-02 00:22:12 | -12.04718 | -77.05336 | 298° | 206km/h | 785m | 4.4m/s | -7.4°C | 11.8% | 0hPa | 0V | 00:00:00 | 00:00:00 | 00:00:00 | |
| LZ4TU-5 | 2026-09-02 00:22:08 | -12.04718 | -77.05336 | 298° | 206km/h | 785m | 4.4m/s | -7.6°C | 11.2% | 0hPa | 0V | 00:00:00 | 00:00:00 | 00:00:00 | |
| LZ4TU-5 | 2026-09-02 00:20:34 | -12.04718 | -77.05336 | 298° | 206km/h | 785m | 4.4m/s | -15.9°C | 7.8% | 0hPa | 0V | 00:00:00 | 00:00:00 | 00:00:00 | |
| LZ4TU-5 | 2026-09-02 00:20:29 | -12.04718 | -77.05336 | 298° | 206km/h | 785m | 4.4m/s | -16.4°C | 7.5% | 0hPa | 0V | 00:00:00 | 00:00:00 | 00:00:00 | |
| LZ4TU-5 | 2026-09-02 00:18:53 | -12.04718 | -77.05336 | 298° | 206km/h | 785m | 4.4m/s | -23.0°C | 32.2% | 0hPa | 0V | 00:00:00 | 00:00:00 | 00:00:00 | |
| LZ4TU-5 | 2026-09-02 00:18:48 | -12.04718 | -77.05336 | 298° | 206km/h | 785m | 4.4m/s | -23.5°C | 35.8% | 0hPa | 0V | 00:00:00 | 00:00:00 | 00:00:00 | |
| LZ4TU-5 | 2026-09-02 00:17:13 | -12.04718 | -77.05336 | 298° | 206km/h | 785m | 4.4m/s | -32.1°C | 0% | 0hPa | 0V | 00:00:00 | 00:00:00 | 00:00:00 | |
| LZ4TU-5 | 2026-09-02 00:17:08 | -12.04718 | -77.05336 | 298° | 206km/h | 785m | 4.4m/s | -32.5°C | 32.4% | 0hPa | 0V | 00:00:00 | 00:00:00 | 00:00:00 | |
| LZ4TU-5 | 2026-09-02 00:15:37 | -12.04718 | -77.05336 | 298° | 206km/h | 785m | 4.4m/s | -39.7°C | 18.1% | 0hPa | 0V | 00:00:00 | 00:00:00 | 00:00:00 | |
| LZ4TU-5 | 2026-09-02 00:15:33 | -12.04718 | -77.05336 | 298° | 206km/h | 785m | 4.4m/s | -40.0°C | 18.6% | 0hPa | 0V | 00:00:00 | 00:00:00 | 00:00:00 | |
| LZ4TU-5 | 2026-09-02 00:13:49 | -12.04718 | -77.05336 | 298° | 206km/h | 785m | 4.4m/s | -47.5°C | 18.0% | 0hPa | 0V | 00:00:00 | 00:00:00 | 00:00:00 | |
| LZ4TU-5 | 2026-09-02 00:13:43 | -12.04718 | -77.05336 | 298° | 206km/h | 785m | 4.4m/s | -47.9°C | 18.6% | 0hPa | 0V | 00:00:00 | 00:00:00 | 00:00:00 | |
| LZ4TU-5 | 2026-09-02 00:11:55 | -12.04718 | -77.05336 | 298° | 206km/h | 785m | 4.4m/s | -54.3°C | 14.6% | 0hPa | 0V | 00:00:00 | 00:00:00 | 00:00:00 | |
| LZ4TU-5 | 2026-09-02 00:11:51 | -12.04718 | -77.05336 | 298° | 206km/h | 785m | 4.4m/s | -54.6°C | 14.7% | 0hPa | 0V | 00:00:00 | 00:00:00 | 00:00:00 | |
| LZ4TU-5 | 2026-09-02 00:10:01 | -12.04718 | -77.05336 | 298° | 206km/h | 785m | 4.4m/s | -57.6°C | 7.5% | 0hPa | 0V | 00:00:00 | 00:00:00 | 00:00:00 | |
| LZ4TU-5 | 2026-09-02 00:09:56 | -12.04718 | -77.05336 | 298° | 206km/h | 785m | 4.4m/s | -58.1°C | 7.7% | 0hPa | 0V | 00:00:00 | 00:00:00 | 00:00:00 | |
| LZ4TU-5 | 2026-09-02 00:08:13 | -12.04718 | -77.05336 | 298° | 206km/h | 785m | 4.4m/s | -60.1°C | 6.3% | 0hPa | 0V | 00:00:00 | 00:00:00 | 00:00:00 | |
| LZ4TU-5 | 2026-09-02 00:08:08 | -12.04718 | -77.05336 | 298° | 206km/h | 785m | 4.4m/s | -60.2°C | 6.4% | 0hPa | 0V | 00:00:00 | 00:00:00 | 00:00:00 | |
| LZ4TU-5 | 2026-09-02 00:06:17 | -12.04782 | -77.05195 | 291° | 197km/h | 786m | -3.7m/s | -56.5°C | 4.5% | 0hPa | 0V | 00:00:00 | 00:00:00 | 00:00:00 | |
| LZ4TU-5 | 2026-09-02 00:04:40 | -12.04330 | -77.05827 | 336° | 197km/h | 897m | -0.6m/s | -55.2°C | 3.8% | 0hPa | 0V | 00:00:00 | 00:00:00 | 00:00:00 | |
| LZ4TU-5 | 2026-09-02 00:04:35 | -12.04539 | -77.05689 | 320° | 199km/h | 886m | 1.9m/s | -55.9°C | 0% | 0hPa | 0V | 00:00:00 | 00:00:00 | 00:00:00 | |
| LZ4TU-5 | 2026-09-02 00:00:57 | -12.04188 | -77.06051 | 340° | 201km/h | 1980m | -2.2m/s | -57.7°C | 4.2% | 0hPa | 0V | 00:00:00 | 00:00:00 | 00:00:00 | |
| LZ4TU-5 | 2026-09-02 00:00:49 | -12.04584 | -77.05775 | 303° | 195km/h | 2105m | -12.3m/s | -57.1°C | 4.0% | 0hPa | 0V | 00:00:00 | 00:00:00 | 00:00:00 | |
| LZ4TU-5 | 2026-09-02 00:00:46 | -12.04719 | -77.05611 | 279° | 197km/h | 2124m | -4.5m/s | -56.9°C | 3.9% | 0hPa | 0V | 00:00:00 | 00:00:00 | 00:00:00 | |
| LZ4TU-5 | 2026-09-02 00:00:40 | -12.04748 | -77.05409 | 279° | 197km/h | 2142m | -4.5m/s | -57.0°C | 4.0% | 0hPa | 0V | 00:00:00 | 00:00:00 | 00:00:00 | |
| LZ4TU-5 | 2026-09-02 00:00:29 | -12.04663 | -77.04749 | 227° | 197km/h | 2191m | -1.0m/s | -56.5°C | 3.8% | 0hPa | 0V | 00:00:00 | 00:00:00 | 00:00:00 | |
| LZ4TU-5 | 2026-09-02 00:00:26 | -12.04490 | -77.04562 | 224° | 197km/h | 2179m | -4.6m/s | -56.4°C | 3.8% | 0hPa | 0V | 00:00:00 | 00:00:00 | 00:00:00 | |
| LZ4TU-5 | 2026-09-02 00:00:21 | -12.04288 | -77.04409 | 205° | 197km/h | 2172m | -16.0m/s | -56.3°C | 3.7% | 0hPa | 0V | 00:00:00 | 00:00:00 | 00:00:00 | |
| LZ4TU-5 | 2026-09-02 00:00:14 | -12.04049 | -77.04328 | 191° | 201km/h | 2186m | -10.4m/s | -56.3°C | 3.7% | 0hPa | 0V | 00:00:00 | 00:00:00 | 00:00:00 | |
| LZ4TU-5 | 2026-09-02 00:00:09 | -12.03847 | -77.04310 | 178° | 203km/h | 2195m | -14.0m/s | -56.1°C | 3.6% | 0hPa | 0V | 00:00:00 | 00:00:00 | 00:00:00 | |
| LZ4TU-5 | 2026-09-01 23:58:04 | -54.00593 | -43.68862 | 0° | 0km/h | 13958m | 0.0m/s | -56.6°C | 1.7% | 0hPa | 0V | 00:00:00 | 00:00:00 | 00:00:00 | |
| LZ4TU-5 | 2026-09-01 23:57:59 | -20.00607 | -72.24825 | 0° | 0km/h | 2484m | 0.0m/s | -57.2°C | 2.6% | 0hPa | 0V | 00:00:00 | 00:00:00 | 00:00:00 | |
| LZ4TU-5 | 2026-09-01 23:56:22 | -36.85234 | -11.78438 | 0° | 0km/h | 7651m | 0.0m/s | -57.5°C | 2.7% | 0hPa | 0V | 00:00:00 | 00:00:00 | 00:00:00 | |
| LZ4TU-5 | 2026-09-01 23:56:17 | -15.81727 | -8.26628 | 0° | 0km/h | 1576m | 0.0m/s | -57.2°C | 3.0% | 0hPa | 0V | 00:00:00 | 00:00:00 | 00:00:00 | |
| LZ4TU-5 | 2026-09-01 23:54:38 | -33.26110 | -16.08568 | 0° | 0km/h | 6395m | 0.0m/s | -56.1°C | 2.8% | 0hPa | 0V | 00:00:00 | 00:00:00 | 00:00:00 | |
| LZ4TU-5 | 2026-09-01 23:54:33 | -30.80098 | -20.62032 | 0° | 0km/h | 5572m | 0.0m/s | -56.4°C | 4.9% | 0hPa | 0V | 00:00:00 | 00:00:00 | 00:00:00 | |
| LZ4TU-5 | 2026-09-01 23:51:09 | -12.04808 | -77.04269 | 0° | 0km/h | 975m | 0.0m/s | -58.8°C | 5.7% | 0hPa | 0V | 00:00:00 | 00:00:00 | 00:00:00 | |
| LZ4TU-5 | 2026-09-01 23:51:04 | -12.04808 | -77.04269 | 0° | 0km/h | 975m | 0.0m/s | -58.6°C | 5.7% | 0hPa | 0V | 00:00:00 | 00:00:00 | 00:00:00 | |
| LZ4TU-5 | 2026-09-01 23:49:13 | -12.04808 | -77.04269 | 0° | 0km/h | 975m | 0.0m/s | -58.4°C | 6.1% | 0hPa | 0V | 00:00:00 | 00:00:00 | 00:00:00 | |
| LZ4TU-5 | 2026-09-01 23:49:08 | -12.04808 | -77.04269 | 0° | 0km/h | 975m | 0.0m/s | -58.7°C | 6.3% | 0hPa | 0V | 00:00:00 | 00:00:00 | 00:00:00 | |
| LZ4TU-5 | 2026-09-01 23:47:29 | -12.04761 | -77.04256 | 196° | 192km/h | 976m | -0.6m/s | -58.7°C | 6.9% | 0hPa | 0V | 00:00:00 | 00:00:00 | 00:00:00 | |
| LZ4TU-5 | 2026-09-01 23:47:24 | -12.04525 | -77.04191 | 196° | 192km/h | 979m | -0.6m/s | -58.8°C | 7.2% | 0hPa | 0V | 00:00:00 | 00:00:00 | 00:00:00 | |
| LZ4TU-5 | 2026-09-01 23:42:23 | 4.92677 | -54.70138 | 0° | 0km/h | 156m | 0.0m/s | -59.6°C | 18.2% | 0hPa | 0V | 00:00:00 | 00:00:00 | 00:00:00 | |
| LZ4TU-5 | 2026-09-01 23:42:18 | 6.57717 | -54.25065 | 0° | 0km/h | 278m | 0.0m/s | -59.4°C | 18.2% | 0hPa | 0V | 00:00:00 | 00:00:00 | 00:00:00 | |
| LZ4TU-5 | 2026-09-01 23:40:54 | -2.04255 | -56.38206 | 0° | 0km/h | 27m | 0.0m/s | -57.2°C | 18.5% | 0hPa | 0V | 00:00:00 | 00:00:00 | 00:00:00 | |
| LZ4TU-5 | 2026-09-01 23:40:49 | 10.06844 | -56.14514 | 0° | 0km/h | 648m | 0.0m/s | -57.3°C | 18.5% | 0hPa | 0V | 00:00:00 | 00:00:00 | 00:00:00 | |
| LZ4TU-5 | 2026-09-01 23:39:24 | -6.29854 | -67.04417 | 0° | 0km/h | 255m | 0.0m/s | -55.0°C | 17.4% | 0hPa | 0V | 00:00:00 | 00:00:00 | 00:00:00 | |
| LZ4TU-5 | 2026-09-01 23:39:20 | 4.48749 | -79.94218 | 0° | 0km/h | 130m | 0.0m/s | -54.9°C | 18.0% | 0hPa | 0V | 00:00:00 | 00:00:00 | 00:00:00 | |
| LZ4TU-5 | 2026-09-01 23:39:15 | 3.56419 | -82.29129 | 0° | 0km/h | 82m | 0.0m/s | -54.8°C | 18.4% | 0hPa | 0V | 00:00:00 | 00:00:00 | 00:00:00 | |
| LZ4TU-5 | 2026-09-01 23:39:11 | 5.90446 | -78.45813 | 0° | 0km/h | 224m | 0.0m/s | -54.7°C | 18.8% | 0hPa | 0V | 00:00:00 | 00:00:00 | 00:00:00 | |
| LZ4TU-5 | 2026-09-01 23:39:07 | 44.47973 | 26.41790 | 0° | 0km/h | 9614m | 0.0m/s | -54.7°C | 16.1% | 0hPa | 0V | 00:00:00 | 00:00:00 | 00:00:00 | |
| LZ4TU-5 | 2026-09-01 23:37:46 | 44.47973 | 26.41790 | 0° | 0km/h | 9614m | 0.0m/s | -53.6°C | 21.5% | 0hPa | 0V | 00:00:00 | 00:00:00 | 00:00:00 | |
| LZ4TU-5 | 2026-09-01 23:37:42 | 44.47973 | 26.41790 | 0° | 0km/h | 9614m | 0.0m/s | -53.5°C | 21.6% | 0hPa | 0V | 00:00:00 | 00:00:00 | 00:00:00 | |
| LZ4TU-5 | 2026-09-01 23:36:15 | 44.47973 | 26.41790 | 0° | 0km/h | 9614m | 0.0m/s | -51.0°C | 20.7% | 0hPa | 0V | 00:00:00 | 00:00:00 | 00:00:00 | |
| LZ4TU-5 | 2026-09-01 23:36:10 | 44.47973 | 26.41790 | 0° | 0km/h | 9614m | 0.0m/s | -51.0°C | 20.4% | 0hPa | 0V | 00:00:00 | 00:00:00 | 00:00:00 | |
| LZ4TU-5 | 2026-09-01 23:34:46 | 44.47973 | 26.41790 | 0° | 0km/h | 9614m | 0.0m/s | -48.2°C | 25.2% | 0hPa | 0V | 00:00:00 | 00:00:00 | 00:00:00 | |
| LZ4TU-5 | 2026-09-01 23:34:41 | 44.47973 | 26.41790 | 0° | 0km/h | 9614m | 0.0m/s | -47.9°C | 24.9% | 0hPa | 0V | 00:00:00 | 00:00:00 | 00:00:00 | |
| LZ4TU-5 | 2026-09-01 23:33:27 | 44.47973 | 26.41790 | 0° | 0km/h | 9614m | 0.0m/s | -45.4°C | 24.7% | 0hPa | 0V | 00:00:00 | 00:00:00 | 00:00:00 | |
| LZ4TU-5 | 2026-09-01 23:33:22 | 44.47973 | 26.41790 | 0° | 0km/h | 9614m | 0.0m/s | -45.2°C | 25.1% | 0hPa | 0V | 00:00:00 | 00:00:00 | 00:00:00 | |
| LZ4TU-5 | 2026-09-01 23:32:08 | 44.47973 | 26.41790 | 0° | 0km/h | 9614m | 0.0m/s | -42.8°C | 20.5% | 0hPa | 0V | 00:00:00 | 00:00:00 | 00:00:00 | |
| LZ4TU-5 | 2026-09-01 23:32:03 | 44.47973 | 26.41790 | 0° | 0km/h | 9614m | 0.0m/s | -42.6°C | 20.8% | 0hPa | 0V | 00:00:00 | 00:00:00 | 00:00:00 | |
| LZ4TU-5 | 2026-09-01 23:30:47 | 44.47959 | 26.42083 | 95° | 93km/h | 9630m | 1.8m/s | -39.6°C | 15.2% | 0hPa | 0V | 00:00:00 | 00:00:00 | 00:00:00 | |
| LZ4TU-5 | 2026-09-01 23:30:43 | 44.47965 | 26.41953 | 95° | 93km/h | 9623m | 1.8m/s | -39.5°C | 15.1% | 0hPa | 0V | 00:00:00 | 00:00:00 | 00:00:00 | |
| LZ4TU-5 | 2026-09-01 23:26:14 | 44.48184 | 26.34645 | 96° | 71km/h | 8342m | 5.7m/s | -28.2°C | 0% | 0hPa | 0V | 00:00:00 | 00:00:00 | 00:00:00 | |
| LZ4TU-5 | 2026-09-01 23:25:12 | 44.48256 | 26.33201 | 97° | 60km/h | 7997m | 5.9m/s | -26.2°C | 51.2% | 0hPa | 0V | 00:00:00 | 00:00:00 | 00:00:00 | |
| LZ4TU-5 | 2026-09-01 23:25:07 | 44.48268 | 26.33097 | 98° | 58km/h | 7974m | 5.4m/s | -26.0°C | 50.6% | 0hPa | 0V | 00:00:00 | 00:00:00 | 00:00:00 | |
| LZ4TU-5 | 2026-09-01 23:23:53 | 44.48340 | 26.31607 | 92° | 64km/h | 7587m | 8.2m/s | -22.3°C | 5.0% | 0hPa | 0V | 00:00:00 | 00:00:00 | 00:00:00 | |
| LZ4TU-5 | 2026-09-01 23:23:48 | 44.48342 | 26.31499 | 91° | 62km/h | 7557m | 6.0m/s | -22.1°C | 5.1% | 0hPa | 0V | 00:00:00 | 00:00:00 | 00:00:00 | |
| LZ4TU-5 | 2026-09-01 23:22:46 | 44.48308 | 26.30296 | 80° | 55km/h | 7259m | 5.7m/s | -20.4°C | 4.4% | 0hPa | 0V | 00:00:00 | 00:00:00 | 00:00:00 | |
| LZ4TU-5 | 2026-09-01 23:22:41 | 44.48289 | 26.30210 | 80° | 49km/h | 7235m | 5.6m/s | -20.2°C | 4.6% | 0hPa | 0V | 00:00:00 | 00:00:00 | 00:00:00 | |
| LZ4TU-5 | 2026-09-01 23:21:29 | 44.48190 | 26.29066 | 86° | 38km/h | 6837m | 5.5m/s | -17.5°C | 6.7% | 0hPa | 0V | 00:00:00 | 00:00:00 | 00:00:00 | |
| LZ4TU-5 | 2026-09-01 23:21:24 | 44.48184 | 26.29015 | 76° | 27km/h | 6814m | 5.1m/s | -17.3°C | 6.7% | 0hPa | 0V | 00:00:00 | 00:00:00 | 00:00:00 | |
| LZ4TU-5 | 2026-09-01 23:20:16 | 44.48153 | 26.28114 | 94° | 51km/h | 6458m | 5.1m/s | -14.5°C | 6.9% | 0hPa | 0V | 00:00:00 | 00:00:00 | 00:00:00 | |
| LZ4TU-5 | 2026-09-01 23:20:11 | 44.48155 | 26.28042 | 80° | 37km/h | 6429m | 8.6m/s | -14.3°C | 7.2% | 0hPa | 0V | 00:00:00 | 00:00:00 | 00:00:00 | |
| LZ4TU-5 | 2026-09-01 23:19:04 | 44.48276 | 26.27201 | 91° | 38km/h | 6046m | 6.2m/s | -11.2°C | 5.8% | 0hPa | 0V | 00:00:00 | 00:00:00 | 00:00:00 | |
| LZ4TU-5 | 2026-09-01 23:18:58 | 44.48272 | 26.27137 | 92° | 29km/h | 6023m | 5.1m/s | -10.9°C | 5.8% | 0hPa | 0V | 00:00:00 | 00:00:00 | 00:00:00 | |
| LZ4TU-5 | 2026-09-01 23:17:50 | 44.48281 | 26.26289 | 112° | 38km/h | 5639m | 7.5m/s | -7.9°C | 5.3% | 0hPa | 0V | 00:00:00 | 00:00:00 | 00:00:00 | |
| LZ4TU-5 | 2026-09-01 23:17:45 | 44.48286 | 26.26242 | 97° | 26km/h | 5610m | 3.3m/s | -7.7°C | 0% | 0hPa | 0V | 00:00:00 | 00:00:00 | 00:00:00 | |
| LZ4TU-5 | 2026-09-01 23:16:43 | 44.48440 | 26.25523 | 97° | 42km/h | 5267m | 4.5m/s | -5.1°C | 0% | 0hPa | 0V | 00:00:00 | 00:00:00 | 00:00:00 | |
| LZ4TU-5 | 2026-09-01 23:16:38 | 44.48451 | 26.25465 | 104° | 33km/h | 5240m | 6.6m/s | -4.9°C | 0% | 0hPa | 0V | 00:00:00 | 00:00:00 | 00:00:00 | |
| LZ4TU-5 | 2026-09-01 23:15:36 | 44.48411 | 26.24868 | 96° | 16km/h | 4896m | 5.7m/s | -3.4°C | 0% | 0hPa | 0V | 00:00:00 | 00:00:00 | 00:00:00 | |
| LZ4TU-5 | 2026-09-01 23:15:31 | 44.48411 | 26.24839 | 61° | 20km/h | 4868m | 3.6m/s | 0°C | 0% | 0hPa | 0V | 00:00:00 | 00:00:00 | 00:00:00 | |
| LZ4TU-5 | 2026-09-01 23:14:30 | 44.48509 | 26.24190 | 107° | 37km/h | 4546m | 7.5m/s | 0°C | 0% | 0hPa | 0V | 00:00:00 | 00:00:00 | 00:00:00 | |
| LZ4TU-5 | 2026-09-01 23:14:25 | 44.48524 | 26.24128 | 110° | 27km/h | 4516m | 4.0m/s | 0°C | 0% | 0hPa | 0V | 00:00:00 | 00:00:00 | 00:00:00 | |
| LZ4TU-5 | 2026-09-01 23:13:22 | 44.48537 | 26.23502 | 56° | 24km/h | 4157m | 3.8m/s | 0°C | 0% | 0hPa | 0V | 00:00:00 | 00:00:00 | 00:00:00 | |
| LZ4TU-5 | 2026-09-01 23:13:17 | 44.48516 | 26.23482 | 25° | 15km/h | 4130m | 4.0m/s | 0°C | 0% | 0hPa | 0V | 00:00:00 | 00:00:00 | 00:00:00 | |
| LZ4TU-5 | 2026-09-01 23:12:15 | 44.48536 | 26.23145 | 150° | 26km/h | 3786m | 7.1m/s | 0°C | 0% | 0hPa | 0V | 00:00:00 | 00:00:00 | 00:00:00 | |
| LZ4TU-5 | 2026-09-01 23:12:11 | 44.48545 | 26.23131 | 82° | 11km/h | 3765m | 5.2m/s | 0°C | 0% | 0hPa | 0V | 00:00:00 | 00:00:00 | 00:00:00 | |
| LZ4TU-5 | 2026-09-01 23:11:09 | 44.48739 | 26.22597 | 125° | 37km/h | 3427m | 3.9m/s | 0°C | 0% | 0hPa | 0V | 00:00:00 | 00:00:00 | 00:00:00 | |
| LZ4TU-5 | 2026-09-01 23:11:05 | 44.48760 | 26.22562 | 140° | 29km/h | 3402m | 6.3m/s | 0°C | 0% | 0hPa | 0V | 00:00:00 | 00:00:00 | 00:00:00 | |
| LZ4TU-5 | 2026-09-01 23:10:04 | 44.49010 | 26.21994 | 119° | 35km/h | 3079m | 5.6m/s | 0°C | 0% | 0hPa | 0V | 00:00:00 | 00:00:00 | 00:00:00 | |
| LZ4TU-5 | 2026-09-01 23:09:59 | 44.49038 | 26.21949 | 121° | 31km/h | 3054m | 4.7m/s | 0°C | 0% | 0hPa | 0V | 00:00:00 | 00:00:00 | 00:00:00 | |
| LZ4TU-5 | 2026-09-01 23:08:57 | 44.49306 | 26.21364 | 128° | 42km/h | 2726m | 4.5m/s | 0°C | 0% | 0hPa | 0V | 00:00:00 | 00:00:00 | 00:00:00 | |
| LZ4TU-5 | 2026-09-01 23:08:53 | 44.49332 | 26.21318 | 117° | 38km/h | 2703m | 5.4m/s | 0°C | 0% | 0hPa | 0V | 00:00:00 | 00:00:00 | 00:00:00 |